sensor_id;sensor_type;location;lat;lon;timestamp;P1;durP1;ratioP1;P2;durP2;ratioP2
71639;SDS011;60912;48.968;10.124;2022-08-05T00:01:23;6.95;;;4.07;;
71639;SDS011;60912;48.968;10.124;2022-08-05T00:03:49;7.53;;;4.10;;
71639;SDS011;60912;48.968;10.124;2022-08-05T00:06:15;8.05;;;3.90;;
71639;SDS011;60912;48.968;10.124;2022-08-05T00:08:42;4.93;;;4.05;;
71639;SDS011;60912;48.968;10.124;2022-08-05T00:11:09;6.37;;;3.93;;
71639;SDS011;60912;48.968;10.124;2022-08-05T00:13:36;5.95;;;3.80;;
71639;SDS011;60912;48.968;10.124;2022-08-05T00:16:02;9.48;;;3.67;;
71639;SDS011;60912;48.968;10.124;2022-08-05T00:18:28;8.18;;;3.90;;
71639;SDS011;60912;48.968;10.124;2022-08-05T00:20:54;6.13;;;3.90;;
71639;SDS011;60912;48.968;10.124;2022-08-05T00:23:22;8.30;;;4.07;;
71639;SDS011;60912;48.968;10.124;2022-08-05T00:25:48;7.63;;;3.90;;
71639;SDS011;60912;48.968;10.124;2022-08-05T00:28:14;6.75;;;3.80;;
71639;SDS011;60912;48.968;10.124;2022-08-05T00:30:40;5.47;;;3.83;;
71639;SDS011;60912;48.968;10.124;2022-08-05T00:33:05;8.37;;;4.10;;
71639;SDS011;60912;48.968;10.124;2022-08-05T00:35:31;6.20;;;3.90;;
71639;SDS011;60912;48.968;10.124;2022-08-05T00:37:56;7.20;;;4.00;;
71639;SDS011;60912;48.968;10.124;2022-08-05T00:40:22;7.17;;;3.70;;
71639;SDS011;60912;48.968;10.124;2022-08-05T00:42:49;8.18;;;4.00;;
71639;SDS011;60912;48.968;10.124;2022-08-05T00:45:14;8.70;;;3.93;;
71639;SDS011;60912;48.968;10.124;2022-08-05T00:47:40;6.37;;;4.17;;
71639;SDS011;60912;48.968;10.124;2022-08-05T00:50:06;5.72;;;4.20;;
71639;SDS011;60912;48.968;10.124;2022-08-05T00:52:32;6.83;;;3.97;;
71639;SDS011;60912;48.968;10.124;2022-08-05T00:54:57;6.60;;;4.00;;
71639;SDS011;60912;48.968;10.124;2022-08-05T00:57:22;7.70;;;4.27;;
71639;SDS011;60912;48.968;10.124;2022-08-05T00:59:48;6.53;;;4.27;;
71639;SDS011;60912;48.968;10.124;2022-08-05T01:02:13;7.50;;;3.80;;
71639;SDS011;60912;48.968;10.124;2022-08-05T01:04:39;7.53;;;3.90;;
71639;SDS011;60912;48.968;10.124;2022-08-05T01:07:04;8.80;;;4.43;;
71639;SDS011;60912;48.968;10.124;2022-08-05T01:09:30;6.50;;;3.73;;
71639;SDS011;60912;48.968;10.124;2022-08-05T01:11:56;5.80;;;3.90;;
71639;SDS011;60912;48.968;10.124;2022-08-05T01:19:50;4.72;;;3.97;;
71639;SDS011;60912;48.968;10.124;2022-08-05T01:30:28;5.75;;;4.00;;
71639;SDS011;60912;48.968;10.124;2022-08-05T01:32:55;4.60;;;3.63;;
71639;SDS011;60912;48.968;10.124;2022-08-05T01:35:25;7.10;;;4.43;;
71639;SDS011;60912;48.968;10.124;2022-08-05T01:37:55;5.20;;;4.00;;
71639;SDS011;60912;48.968;10.124;2022-08-05T01:40:25;6.35;;;4.00;;
71639;SDS011;60912;48.968;10.124;2022-08-05T01:42:53;9.63;;;4.10;;
71639;SDS011;60912;48.968;10.124;2022-08-05T01:45:21;6.10;;;4.00;;
71639;SDS011;60912;48.968;10.124;2022-08-05T01:47:48;6.80;;;4.30;;
71639;SDS011;60912;48.968;10.124;2022-08-05T01:50:36;5.50;;;4.10;;
71639;SDS011;60912;48.968;10.124;2022-08-05T01:53:03;7.07;;;4.00;;
71639;SDS011;60912;48.968;10.124;2022-08-05T01:55:33;5.28;;;3.80;;
71639;SDS011;60912;48.968;10.124;2022-08-05T01:58:00;8.00;;;4.18;;
71639;SDS011;60912;48.968;10.124;2022-08-05T02:00:28;5.93;;;4.03;;
71639;SDS011;60912;48.968;10.124;2022-08-05T02:02:55;8.00;;;4.47;;
71639;SDS011;60912;48.968;10.124;2022-08-05T02:05:24;6.70;;;4.13;;
71639;SDS011;60912;48.968;10.124;2022-08-05T02:07:53;4.75;;;3.90;;
71639;SDS011;60912;48.968;10.124;2022-08-05T02:10:19;8.27;;;3.90;;
71639;SDS011;60912;48.968;10.124;2022-08-05T02:13:00;7.63;;;4.23;;
71639;SDS011;60912;48.968;10.124;2022-08-05T02:15:34;6.00;;;4.20;;
71639;SDS011;60912;48.968;10.124;2022-08-05T02:21:09;7.28;;;4.30;;
71639;SDS011;60912;48.968;10.124;2022-08-05T02:23:39;8.43;;;4.47;;
71639;SDS011;60912;48.968;10.124;2022-08-05T02:26:07;5.25;;;4.30;;
71639;SDS011;60912;48.968;10.124;2022-08-05T02:28:35;6.80;;;4.13;;
71639;SDS011;60912;48.968;10.124;2022-08-05T02:31:11;6.80;;;4.10;;
71639;SDS011;60912;48.968;10.124;2022-08-05T02:33:41;6.20;;;4.70;;
71639;SDS011;60912;48.968;10.124;2022-08-05T02:36:11;6.25;;;4.18;;
71639;SDS011;60912;48.968;10.124;2022-08-05T02:38:37;9.65;;;4.40;;
71639;SDS011;60912;48.968;10.124;2022-08-05T02:41:06;6.05;;;4.10;;
71639;SDS011;60912;48.968;10.124;2022-08-05T02:43:33;7.83;;;4.30;;
71639;SDS011;60912;48.968;10.124;2022-08-05T02:46:00;6.03;;;4.40;;
71639;SDS011;60912;48.968;10.124;2022-08-05T02:48:26;5.20;;;4.10;;
71639;SDS011;60912;48.968;10.124;2022-08-05T02:50:52;7.70;;;4.30;;
71639;SDS011;60912;48.968;10.124;2022-08-05T02:53:18;8.97;;;4.67;;
71639;SDS011;60912;48.968;10.124;2022-08-05T02:55:46;13.48;;;4.85;;
71639;SDS011;60912;48.968;10.124;2022-08-05T02:58:13;7.18;;;4.18;;
71639;SDS011;60912;48.968;10.124;2022-08-05T03:00:40;6.10;;;4.35;;
71639;SDS011;60912;48.968;10.124;2022-08-05T03:03:07;4.70;;;4.20;;
71639;SDS011;60912;48.968;10.124;2022-08-05T03:05:32;6.33;;;4.20;;
71639;SDS011;60912;48.968;10.124;2022-08-05T03:07:58;8.05;;;4.03;;
71639;SDS011;60912;48.968;10.124;2022-08-05T03:10:24;5.43;;;4.23;;
71639;SDS011;60912;48.968;10.124;2022-08-05T03:12:49;7.03;;;4.03;;
71639;SDS011;60912;48.968;10.124;2022-08-05T03:15:15;5.60;;;3.97;;
71639;SDS011;60912;48.968;10.124;2022-08-05T03:17:40;6.43;;;4.27;;
71639;SDS011;60912;48.968;10.124;2022-08-05T03:20:07;9.00;;;4.03;;
71639;SDS011;60912;48.968;10.124;2022-08-05T03:22:33;6.30;;;4.05;;
71639;SDS011;60912;48.968;10.124;2022-08-05T03:24:58;6.93;;;4.20;;
71639;SDS011;60912;48.968;10.124;2022-08-05T03:27:24;6.43;;;4.40;;
71639;SDS011;60912;48.968;10.124;2022-08-05T03:29:50;6.75;;;4.57;;
71639;SDS011;60912;48.968;10.124;2022-08-05T03:32:17;6.60;;;4.27;;
71639;SDS011;60912;48.968;10.124;2022-08-05T03:34:43;6.20;;;4.30;;
71639;SDS011;60912;48.968;10.124;2022-08-05T03:37:10;7.38;;;4.28;;
71639;SDS011;60912;48.968;10.124;2022-08-05T03:39:36;7.80;;;4.60;;
71639;SDS011;60912;48.968;10.124;2022-08-05T03:42:02;7.03;;;4.10;;
71639;SDS011;60912;48.968;10.124;2022-08-05T03:44:28;8.73;;;4.32;;
71639;SDS011;60912;48.968;10.124;2022-08-05T03:46:53;7.27;;;4.43;;
71639;SDS011;60912;48.968;10.124;2022-08-05T03:49:19;5.67;;;4.20;;
71639;SDS011;60912;48.968;10.124;2022-08-05T03:51:54;7.60;;;4.67;;
71639;SDS011;60912;48.968;10.124;2022-08-05T03:54:29;5.75;;;4.45;;
71639;SDS011;60912;48.968;10.124;2022-08-05T03:57:01;7.80;;;4.30;;
71639;SDS011;60912;48.968;10.124;2022-08-05T03:59:52;7.07;;;4.70;;
71639;SDS011;60912;48.968;10.124;2022-08-05T04:02:21;5.80;;;4.22;;
71639;SDS011;60912;48.968;10.124;2022-08-05T04:04:49;5.85;;;4.32;;
71639;SDS011;60912;48.968;10.124;2022-08-05T04:07:15;5.38;;;4.50;;
71639;SDS011;60912;48.968;10.124;2022-08-05T04:09:41;7.57;;;4.30;;
71639;SDS011;60912;48.968;10.124;2022-08-05T04:12:08;6.25;;;4.55;;
71639;SDS011;60912;48.968;10.124;2022-08-05T04:14:34;6.95;;;4.20;;
71639;SDS011;60912;48.968;10.124;2022-08-05T04:17:00;7.80;;;4.17;;
71639;SDS011;60912;48.968;10.124;2022-08-05T04:19:29;6.10;;;4.00;;
71639;SDS011;60912;48.968;10.124;2022-08-05T04:21:54;7.13;;;4.28;;
71639;SDS011;60912;48.968;10.124;2022-08-05T04:24:19;6.87;;;4.10;;
71639;SDS011;60912;48.968;10.124;2022-08-05T04:26:45;6.63;;;4.30;;
71639;SDS011;60912;48.968;10.124;2022-08-05T04:29:11;5.17;;;3.70;;
71639;SDS011;60912;48.968;10.124;2022-08-05T04:31:36;7.18;;;4.05;;
71639;SDS011;60912;48.968;10.124;2022-08-05T04:34:02;7.33;;;4.30;;
71639;SDS011;60912;48.968;10.124;2022-08-05T04:36:27;6.18;;;4.18;;
71639;SDS011;60912;48.968;10.124;2022-08-05T04:38:53;6.77;;;4.40;;
71639;SDS011;60912;48.968;10.124;2022-08-05T04:41:19;9.50;;;4.00;;
71639;SDS011;60912;48.968;10.124;2022-08-05T04:43:44;9.43;;;4.53;;
71639;SDS011;60912;48.968;10.124;2022-08-05T04:46:10;7.18;;;3.85;;
71639;SDS011;60912;48.968;10.124;2022-08-05T04:48:35;6.83;;;4.10;;
71639;SDS011;60912;48.968;10.124;2022-08-05T04:51:01;7.57;;;4.03;;
71639;SDS011;60912;48.968;10.124;2022-08-05T04:53:26;10.70;;;4.00;;
71639;SDS011;60912;48.968;10.124;2022-08-05T04:55:52;7.28;;;3.78;;
71639;SDS011;60912;48.968;10.124;2022-08-05T04:58:18;9.20;;;4.20;;
71639;SDS011;60912;48.968;10.124;2022-08-05T05:00:43;6.53;;;4.20;;
71639;SDS011;60912;48.968;10.124;2022-08-05T05:03:09;8.17;;;3.70;;
71639;SDS011;60912;48.968;10.124;2022-08-05T05:05:35;8.43;;;5.20;;
71639;SDS011;60912;48.968;10.124;2022-08-05T05:08:02;8.85;;;4.80;;
71639;SDS011;60912;48.968;10.124;2022-08-05T05:10:36;8.60;;;4.37;;
71639;SDS011;60912;48.968;10.124;2022-08-05T05:13:06;7.00;;;4.40;;
71639;SDS011;60912;48.968;10.124;2022-08-05T05:15:33;6.00;;;4.20;;
71639;SDS011;60912;48.968;10.124;2022-08-05T05:17:59;11.70;;;4.28;;
71639;SDS011;60912;48.968;10.124;2022-08-05T05:20:24;8.33;;;4.10;;
71639;SDS011;60912;48.968;10.124;2022-08-05T05:22:49;6.03;;;4.00;;
71639;SDS011;60912;48.968;10.124;2022-08-05T05:25:15;5.97;;;3.67;;
71639;SDS011;60912;48.968;10.124;2022-08-05T05:27:40;8.63;;;3.92;;
71639;SDS011;60912;48.968;10.124;2022-08-05T05:30:05;5.73;;;3.90;;
71639;SDS011;60912;48.968;10.124;2022-08-05T05:32:31;7.03;;;3.85;;
71639;SDS011;60912;48.968;10.124;2022-08-05T05:34:57;9.23;;;3.50;;
71639;SDS011;60912;48.968;10.124;2022-08-05T05:37:22;5.77;;;3.23;;
71639;SDS011;60912;48.968;10.124;2022-08-05T05:39:48;9.07;;;3.50;;
71639;SDS011;60912;48.968;10.124;2022-08-05T05:42:14;8.73;;;3.30;;
71639;SDS011;60912;48.968;10.124;2022-08-05T05:44:40;6.57;;;2.85;;
71639;SDS011;60912;48.968;10.124;2022-08-05T05:47:05;10.30;;;3.10;;
71639;SDS011;60912;48.968;10.124;2022-08-05T05:49:32;9.32;;;2.97;;
71639;SDS011;60912;48.968;10.124;2022-08-05T05:51:57;6.20;;;2.70;;
71639;SDS011;60912;48.968;10.124;2022-08-05T05:54:23;6.40;;;2.80;;
71639;SDS011;60912;48.968;10.124;2022-08-05T05:56:48;7.83;;;2.70;;
71639;SDS011;60912;48.968;10.124;2022-08-05T05:59:13;7.30;;;3.30;;
71639;SDS011;60912;48.968;10.124;2022-08-05T06:01:40;4.80;;;2.90;;
71639;SDS011;60912;48.968;10.124;2022-08-05T06:04:06;5.30;;;3.00;;
71639;SDS011;60912;48.968;10.124;2022-08-05T06:06:34;6.50;;;2.80;;
71639;SDS011;60912;48.968;10.124;2022-08-05T06:08:59;6.80;;;2.95;;
71639;SDS011;60912;48.968;10.124;2022-08-05T06:11:25;5.23;;;2.90;;
71639;SDS011;60912;48.968;10.124;2022-08-05T06:13:50;8.20;;;3.17;;
71639;SDS011;60912;48.968;10.124;2022-08-05T06:16:16;5.30;;;3.13;;
71639;SDS011;60912;48.968;10.124;2022-08-05T06:18:41;7.67;;;3.10;;
71639;SDS011;60912;48.968;10.124;2022-08-05T06:21:08;5.87;;;2.90;;
71639;SDS011;60912;48.968;10.124;2022-08-05T06:23:33;4.93;;;3.00;;
71639;SDS011;60912;48.968;10.124;2022-08-05T06:25:59;7.67;;;3.30;;
71639;SDS011;60912;48.968;10.124;2022-08-05T06:28:24;7.13;;;3.30;;
71639;SDS011;60912;48.968;10.124;2022-08-05T06:30:49;9.50;;;3.03;;
71639;SDS011;60912;48.968;10.124;2022-08-05T06:33:15;6.67;;;3.07;;
71639;SDS011;60912;48.968;10.124;2022-08-05T06:35:40;9.03;;;3.30;;
71639;SDS011;60912;48.968;10.124;2022-08-05T06:38:05;9.53;;;3.20;;
71639;SDS011;60912;48.968;10.124;2022-08-05T06:40:31;7.73;;;3.20;;
71639;SDS011;60912;48.968;10.124;2022-08-05T06:42:56;8.63;;;3.10;;
71639;SDS011;60912;48.968;10.124;2022-08-05T06:45:22;8.77;;;3.30;;
71639;SDS011;60912;48.968;10.124;2022-08-05T06:47:47;8.88;;;3.42;;
71639;SDS011;60912;48.968;10.124;2022-08-05T06:50:13;5.17;;;2.80;;
71639;SDS011;60912;48.968;10.124;2022-08-05T06:52:38;8.23;;;3.30;;
71639;SDS011;60912;48.968;10.124;2022-08-05T06:55:04;5.53;;;2.90;;
71639;SDS011;60912;48.968;10.124;2022-08-05T06:57:30;7.03;;;3.30;;
71639;SDS011;60912;48.968;10.124;2022-08-05T06:59:55;6.00;;;3.17;;
71639;SDS011;60912;48.968;10.124;2022-08-05T07:02:21;6.15;;;2.80;;
71639;SDS011;60912;48.968;10.124;2022-08-05T07:04:46;8.13;;;2.90;;
71639;SDS011;60912;48.968;10.124;2022-08-05T07:07:11;6.30;;;2.90;;
71639;SDS011;60912;48.968;10.124;2022-08-05T07:09:37;6.37;;;2.90;;
71639;SDS011;60912;48.968;10.124;2022-08-05T07:12:02;7.87;;;3.13;;
71639;SDS011;60912;48.968;10.124;2022-08-05T07:14:28;8.15;;;3.53;;
71639;SDS011;60912;48.968;10.124;2022-08-05T07:17:12;7.47;;;3.20;;
71639;SDS011;60912;48.968;10.124;2022-08-05T07:19:37;9.85;;;3.10;;
71639;SDS011;60912;48.968;10.124;2022-08-05T07:22:03;9.17;;;3.30;;
71639;SDS011;60912;48.968;10.124;2022-08-05T07:24:28;9.43;;;3.43;;
71639;SDS011;60912;48.968;10.124;2022-08-05T07:26:54;10.33;;;3.10;;
71639;SDS011;60912;48.968;10.124;2022-08-05T07:29:19;8.53;;;3.30;;
71639;SDS011;60912;48.968;10.124;2022-08-05T07:31:44;5.20;;;3.17;;
71639;SDS011;60912;48.968;10.124;2022-08-05T07:34:10;10.53;;;3.07;;
71639;SDS011;60912;48.968;10.124;2022-08-05T07:36:35;6.50;;;2.90;;
71639;SDS011;60912;48.968;10.124;2022-08-05T07:39:04;6.77;;;2.57;;
71639;SDS011;60912;48.968;10.124;2022-08-05T07:41:31;8.98;;;2.70;;
71639;SDS011;60912;48.968;10.124;2022-08-05T07:43:57;8.68;;;2.70;;
71639;SDS011;60912;48.968;10.124;2022-08-05T07:46:27;8.23;;;2.72;;
71639;SDS011;60912;48.968;10.124;2022-08-05T07:48:54;7.77;;;2.70;;
71639;SDS011;60912;48.968;10.124;2022-08-05T07:51:21;7.72;;;2.67;;
71639;SDS011;60912;48.968;10.124;2022-08-05T07:53:47;5.43;;;2.60;;
71639;SDS011;60912;48.968;10.124;2022-08-05T07:56:13;7.83;;;2.50;;
71639;SDS011;60912;48.968;10.124;2022-08-05T07:58:38;4.83;;;2.50;;
71639;SDS011;60912;48.968;10.124;2022-08-05T08:01:04;7.60;;;2.10;;
71639;SDS011;60912;48.968;10.124;2022-08-05T08:03:30;4.97;;;2.07;;
71639;SDS011;60912;48.968;10.124;2022-08-05T08:05:56;5.70;;;1.92;;
71639;SDS011;60912;48.968;10.124;2022-08-05T08:08:21;6.67;;;1.93;;
71639;SDS011;60912;48.968;10.124;2022-08-05T08:10:46;7.63;;;2.20;;
71639;SDS011;60912;48.968;10.124;2022-08-05T08:13:12;5.90;;;2.13;;
71639;SDS011;60912;48.968;10.124;2022-08-05T08:15:37;4.57;;;1.75;;
71639;SDS011;60912;48.968;10.124;2022-08-05T08:18:03;5.70;;;1.87;;
71639;SDS011;60912;48.968;10.124;2022-08-05T08:20:29;6.55;;;2.25;;
71639;SDS011;60912;48.968;10.124;2022-08-05T08:22:56;4.17;;;1.83;;
71639;SDS011;60912;48.968;10.124;2022-08-05T08:25:23;7.32;;;2.00;;
71639;SDS011;60912;48.968;10.124;2022-08-05T08:27:50;4.80;;;1.88;;
71639;SDS011;60912;48.968;10.124;2022-08-05T08:30:15;7.83;;;2.00;;
71639;SDS011;60912;48.968;10.124;2022-08-05T08:32:40;5.00;;;1.83;;
71639;SDS011;60912;48.968;10.124;2022-08-05T08:35:06;5.53;;;1.77;;
71639;SDS011;60912;48.968;10.124;2022-08-05T08:37:33;6.30;;;1.70;;
71639;SDS011;60912;48.968;10.124;2022-08-05T08:39:58;4.70;;;1.83;;
71639;SDS011;60912;48.968;10.124;2022-08-05T08:42:24;5.20;;;1.60;;
71639;SDS011;60912;48.968;10.124;2022-08-05T08:44:52;3.55;;;1.70;;
71639;SDS011;60912;48.968;10.124;2022-08-05T08:47:21;5.80;;;1.98;;
71639;SDS011;60912;48.968;10.124;2022-08-05T08:49:48;6.43;;;1.83;;
71639;SDS011;60912;48.968;10.124;2022-08-05T08:52:18;4.13;;;1.67;;
71639;SDS011;60912;48.968;10.124;2022-08-05T08:54:48;4.82;;;1.52;;
71639;SDS011;60912;48.968;10.124;2022-08-05T08:57:16;4.13;;;1.50;;
71639;SDS011;60912;48.968;10.124;2022-08-05T08:59:42;5.25;;;1.45;;
71639;SDS011;60912;48.968;10.124;2022-08-05T09:02:08;3.77;;;1.30;;
71639;SDS011;60912;48.968;10.124;2022-08-05T09:04:34;3.72;;;1.27;;
71639;SDS011;60912;48.968;10.124;2022-08-05T09:07:02;5.50;;;1.50;;
71639;SDS011;60912;48.968;10.124;2022-08-05T09:09:29;3.67;;;1.60;;
71639;SDS011;60912;48.968;10.124;2022-08-05T09:11:55;3.30;;;1.42;;
71639;SDS011;60912;48.968;10.124;2022-08-05T09:14:21;3.43;;;1.37;;
71639;SDS011;60912;48.968;10.124;2022-08-05T09:16:46;3.25;;;1.40;;
71639;SDS011;60912;48.968;10.124;2022-08-05T09:19:12;4.07;;;1.40;;
71639;SDS011;60912;48.968;10.124;2022-08-05T09:21:37;3.70;;;1.90;;
71639;SDS011;60912;48.968;10.124;2022-08-05T09:24:04;7.37;;;1.57;;
71639;SDS011;60912;48.968;10.124;2022-08-05T09:26:32;4.40;;;1.30;;
71639;SDS011;60912;48.968;10.124;2022-08-05T09:28:59;4.40;;;1.50;;
71639;SDS011;60912;48.968;10.124;2022-08-05T09:31:28;4.40;;;1.60;;
71639;SDS011;60912;48.968;10.124;2022-08-05T09:36:49;2.47;;;1.23;;
71639;SDS011;60912;48.968;10.124;2022-08-05T09:39:16;3.40;;;1.57;;
71639;SDS011;60912;48.968;10.124;2022-08-05T09:44:38;3.72;;;1.35;;
71639;SDS011;60912;48.968;10.124;2022-08-05T09:47:15;5.15;;;1.70;;
71639;SDS011;60912;48.968;10.124;2022-08-05T09:52:20;3.33;;;1.60;;
71639;SDS011;60912;48.968;10.124;2022-08-05T09:55:11;5.00;;;1.48;;
71639;SDS011;60912;48.968;10.124;2022-08-05T09:57:40;3.38;;;1.48;;
71639;SDS011;60912;48.968;10.124;2022-08-05T10:02:52;6.43;;;1.55;;
71639;SDS011;60912;48.968;10.124;2022-08-05T10:05:22;5.00;;;1.40;;
71639;SDS011;60912;48.968;10.124;2022-08-05T10:07:56;2.80;;;1.33;;
71639;SDS011;60912;48.968;10.124;2022-08-05T10:10:57;4.40;;;1.40;;
71639;SDS011;60912;48.968;10.124;2022-08-05T10:13:29;4.18;;;1.40;;
71639;SDS011;60912;48.968;10.124;2022-08-05T10:16:00;3.60;;;1.48;;
71639;SDS011;60912;48.968;10.124;2022-08-05T10:18:26;3.63;;;1.40;;
71639;SDS011;60912;48.968;10.124;2022-08-05T10:20:55;4.72;;;1.30;;
71639;SDS011;60912;48.968;10.124;2022-08-05T10:23:29;4.85;;;1.58;;
71639;SDS011;60912;48.968;10.124;2022-08-05T10:25:56;3.93;;;1.43;;
71639;SDS011;60912;48.968;10.124;2022-08-05T10:28:23;2.67;;;1.25;;
71639;SDS011;60912;48.968;10.124;2022-08-05T10:30:50;4.15;;;1.30;;
71639;SDS011;60912;48.968;10.124;2022-08-05T10:33:17;4.25;;;1.30;;
71639;SDS011;60912;48.968;10.124;2022-08-05T10:35:45;2.77;;;1.23;;
71639;SDS011;60912;48.968;10.124;2022-08-05T10:38:11;3.15;;;1.30;;
71639;SDS011;60912;48.968;10.124;2022-08-05T10:40:40;3.10;;;1.45;;
71639;SDS011;60912;48.968;10.124;2022-08-05T10:46:01;5.30;;;1.30;;
71639;SDS011;60912;48.968;10.124;2022-08-05T10:56:27;4.40;;;1.52;;
71639;SDS011;60912;48.968;10.124;2022-08-05T11:01:35;2.63;;;1.20;;
71639;SDS011;60912;48.968;10.124;2022-08-05T11:04:03;5.40;;;1.27;;
71639;SDS011;60912;48.968;10.124;2022-08-05T11:09:36;7.45;;;1.60;;
71639;SDS011;60912;48.968;10.124;2022-08-05T11:12:05;3.92;;;1.40;;
71639;SDS011;60912;48.968;10.124;2022-08-05T11:17:32;3.17;;;1.40;;
71639;SDS011;60912;48.968;10.124;2022-08-05T11:20:01;2.63;;;1.40;;
71639;SDS011;60912;48.968;10.124;2022-08-05T11:22:39;4.47;;;1.20;;
71639;SDS011;60912;48.968;10.124;2022-08-05T11:28:42;2.10;;;1.20;;
71639;SDS011;60912;48.968;10.124;2022-08-05T11:35:58;2.92;;;1.25;;
71639;SDS011;60912;48.968;10.124;2022-08-05T11:43:31;2.95;;;1.30;;
71639;SDS011;60912;48.968;10.124;2022-08-05T11:45:58;4.90;;;1.60;;
71639;SDS011;60912;48.968;10.124;2022-08-05T11:48:24;3.38;;;1.38;;
71639;SDS011;60912;48.968;10.124;2022-08-05T11:50:50;7.05;;;1.55;;
71639;SDS011;60912;48.968;10.124;2022-08-05T11:53:16;2.55;;;1.30;;
71639;SDS011;60912;48.968;10.124;2022-08-05T11:55:56;3.57;;;1.30;;
71639;SDS011;60912;48.968;10.124;2022-08-05T11:58:28;2.65;;;1.33;;
71639;SDS011;60912;48.968;10.124;2022-08-05T12:01:02;3.05;;;1.40;;
71639;SDS011;60912;48.968;10.124;2022-08-05T12:03:28;2.40;;;1.30;;
71639;SDS011;60912;48.968;10.124;2022-08-05T12:05:58;2.65;;;1.40;;
71639;SDS011;60912;48.968;10.124;2022-08-05T12:08:25;2.67;;;1.23;;
71639;SDS011;60912;48.968;10.124;2022-08-05T12:10:50;2.87;;;1.30;;
71639;SDS011;60912;48.968;10.124;2022-08-05T12:13:17;3.07;;;1.30;;
71639;SDS011;60912;48.968;10.124;2022-08-05T12:15:43;4.82;;;1.30;;
71639;SDS011;60912;48.968;10.124;2022-08-05T12:18:09;3.20;;;1.30;;
71639;SDS011;60912;48.968;10.124;2022-08-05T12:20:34;3.95;;;1.50;;
71639;SDS011;60912;48.968;10.124;2022-08-05T12:23:11;4.07;;;1.50;;
71639;SDS011;60912;48.968;10.124;2022-08-05T12:28:35;3.30;;;1.45;;
71639;SDS011;60912;48.968;10.124;2022-08-05T12:31:02;5.65;;;1.60;;
71639;SDS011;60912;48.968;10.124;2022-08-05T12:33:28;3.63;;;1.33;;
71639;SDS011;60912;48.968;10.124;2022-08-05T12:35:54;3.20;;;1.23;;
71639;SDS011;60912;48.968;10.124;2022-08-05T12:38:23;3.05;;;1.60;;
71639;SDS011;60912;48.968;10.124;2022-08-05T12:40:49;3.40;;;1.48;;
71639;SDS011;60912;48.968;10.124;2022-08-05T12:43:14;6.20;;;2.67;;
71639;SDS011;60912;48.968;10.124;2022-08-05T12:45:53;3.92;;;1.52;;
71639;SDS011;60912;48.968;10.124;2022-08-05T12:48:20;4.13;;;1.40;;
71639;SDS011;60912;48.968;10.124;2022-08-05T12:53:42;3.30;;;1.40;;
71639;SDS011;60912;48.968;10.124;2022-08-05T12:56:21;3.97;;;1.50;;
71639;SDS011;60912;48.968;10.124;2022-08-05T13:01:44;2.30;;;1.20;;
71639;SDS011;60912;48.968;10.124;2022-08-05T13:04:30;3.90;;;1.40;;
71639;SDS011;60912;48.968;10.124;2022-08-05T13:06:58;3.40;;;1.60;;
71639;SDS011;60912;48.968;10.124;2022-08-05T13:09:25;3.53;;;1.55;;
71639;SDS011;60912;48.968;10.124;2022-08-05T13:11:55;3.25;;;1.40;;
71639;SDS011;60912;48.968;10.124;2022-08-05T13:14:27;3.60;;;1.40;;
71639;SDS011;60912;48.968;10.124;2022-08-05T13:16:54;3.00;;;1.40;;
71639;SDS011;60912;48.968;10.124;2022-08-05T13:19:23;3.55;;;1.67;;
71639;SDS011;60912;48.968;10.124;2022-08-05T13:21:50;4.73;;;1.60;;
71639;SDS011;60912;48.968;10.124;2022-08-05T13:24:16;3.08;;;1.20;;
71639;SDS011;60912;48.968;10.124;2022-08-05T13:26:43;3.78;;;1.40;;
71639;SDS011;60912;48.968;10.124;2022-08-05T13:29:09;3.95;;;1.50;;
71639;SDS011;60912;48.968;10.124;2022-08-05T13:31:35;3.30;;;1.40;;
71639;SDS011;60912;48.968;10.124;2022-08-05T13:34:00;3.45;;;1.40;;
71639;SDS011;60912;48.968;10.124;2022-08-05T13:36:25;4.63;;;1.80;;
71639;SDS011;60912;48.968;10.124;2022-08-05T13:38:51;5.50;;;1.50;;
71639;SDS011;60912;48.968;10.124;2022-08-05T13:41:16;4.23;;;1.60;;
71639;SDS011;60912;48.968;10.124;2022-08-05T13:43:42;3.60;;;1.60;;
71639;SDS011;60912;48.968;10.124;2022-08-05T13:46:10;3.97;;;1.63;;
71639;SDS011;60912;48.968;10.124;2022-08-05T13:48:36;2.95;;;1.40;;
71639;SDS011;60912;48.968;10.124;2022-08-05T13:51:09;2.95;;;1.50;;
71639;SDS011;60912;48.968;10.124;2022-08-05T13:53:38;4.27;;;1.60;;
71639;SDS011;60912;48.968;10.124;2022-08-05T13:56:04;3.03;;;1.63;;
71639;SDS011;60912;48.968;10.124;2022-08-05T13:58:30;2.63;;;1.52;;
71639;SDS011;60912;48.968;10.124;2022-08-05T14:00:55;4.23;;;1.80;;
71639;SDS011;60912;48.968;10.124;2022-08-05T14:03:21;4.27;;;1.70;;
71639;SDS011;60912;48.968;10.124;2022-08-05T14:05:46;4.47;;;1.63;;
71639;SDS011;60912;48.968;10.124;2022-08-05T14:08:12;4.07;;;1.70;;
71639;SDS011;60912;48.968;10.124;2022-08-05T14:10:38;3.80;;;1.67;;
71639;SDS011;60912;48.968;10.124;2022-08-05T14:13:04;3.20;;;1.70;;
71639;SDS011;60912;48.968;10.124;2022-08-05T14:15:31;4.65;;;1.70;;
71639;SDS011;60912;48.968;10.124;2022-08-05T14:17:58;3.00;;;1.60;;
71639;SDS011;60912;48.968;10.124;2022-08-05T14:20:24;4.30;;;1.55;;
71639;SDS011;60912;48.968;10.124;2022-08-05T14:22:49;3.27;;;1.53;;
71639;SDS011;60912;48.968;10.124;2022-08-05T14:25:14;2.67;;;1.40;;
71639;SDS011;60912;48.968;10.124;2022-08-05T14:27:42;3.57;;;1.53;;
71639;SDS011;60912;48.968;10.124;2022-08-05T14:30:08;4.00;;;1.60;;
71639;SDS011;60912;48.968;10.124;2022-08-05T14:32:34;3.58;;;1.50;;
71639;SDS011;60912;48.968;10.124;2022-08-05T14:35:01;2.80;;;1.55;;
71639;SDS011;60912;48.968;10.124;2022-08-05T14:37:27;3.20;;;1.60;;
71639;SDS011;60912;48.968;10.124;2022-08-05T14:39:52;3.37;;;1.40;;
71639;SDS011;60912;48.968;10.124;2022-08-05T14:42:18;3.23;;;1.60;;
71639;SDS011;60912;48.968;10.124;2022-08-05T14:44:43;4.50;;;1.63;;
71639;SDS011;60912;48.968;10.124;2022-08-05T14:47:10;3.30;;;1.80;;
71639;SDS011;60912;48.968;10.124;2022-08-05T14:49:35;3.58;;;1.40;;
71639;SDS011;60912;48.968;10.124;2022-08-05T14:52:01;4.00;;;1.57;;
71639;SDS011;60912;48.968;10.124;2022-08-05T14:54:26;3.35;;;1.60;;
71639;SDS011;60912;48.968;10.124;2022-08-05T14:56:51;4.70;;;1.60;;
71639;SDS011;60912;48.968;10.124;2022-08-05T14:59:17;4.93;;;1.70;;
71639;SDS011;60912;48.968;10.124;2022-08-05T15:01:44;4.15;;;1.70;;
71639;SDS011;60912;48.968;10.124;2022-08-05T15:04:10;5.00;;;1.63;;
71639;SDS011;60912;48.968;10.124;2022-08-05T15:06:36;7.30;;;1.90;;
71639;SDS011;60912;48.968;10.124;2022-08-05T15:09:01;5.67;;;1.70;;
71639;SDS011;60912;48.968;10.124;2022-08-05T15:11:27;4.13;;;1.70;;
71639;SDS011;60912;48.968;10.124;2022-08-05T15:13:52;6.80;;;1.70;;
71639;SDS011;60912;48.968;10.124;2022-08-05T15:16:18;8.33;;;1.90;;
71639;SDS011;60912;48.968;10.124;2022-08-05T15:18:43;4.60;;;1.90;;
71639;SDS011;60912;48.968;10.124;2022-08-05T15:21:08;3.80;;;1.77;;
71639;SDS011;60912;48.968;10.124;2022-08-05T15:23:34;4.90;;;1.98;;
71639;SDS011;60912;48.968;10.124;2022-08-05T15:25:59;7.40;;;1.80;;
71639;SDS011;60912;48.968;10.124;2022-08-05T15:28:25;9.83;;;2.13;;
71639;SDS011;60912;48.968;10.124;2022-08-05T15:30:50;4.73;;;1.80;;
71639;SDS011;60912;48.968;10.124;2022-08-05T15:33:15;4.80;;;1.70;;
71639;SDS011;60912;48.968;10.124;2022-08-05T15:35:41;7.47;;;1.80;;
71639;SDS011;60912;48.968;10.124;2022-08-05T15:38:06;3.20;;;1.53;;
71639;SDS011;60912;48.968;10.124;2022-08-05T15:40:32;6.63;;;2.03;;
71639;SDS011;60912;48.968;10.124;2022-08-05T15:42:57;3.90;;;1.77;;